VA35 weather

Fort Lee Nr 1 /Hqs/ Heliport
Fort Lee, Virginia, United States

Public forecast

Using degrees Fahrenheit for public forecast. Weather courtesy of forecast.io.

METAR (pilot weather report)

Closest report is Dinwiddie County Airport, 8.6 nm (15.9 km) WSW. Retrieved 2019/06/17 21:35 UTC (25 minutes ago):

KPTB 172135Z AUTO 21005KT 10SM SCT049 SCT060 SCT080 31/22 A2997 RMK AO2 LTG DSNT SE THRU W T03130217

TAF (pilot weather forecast)

Closest forecast is Richmond International Airport, 15.9 nm (29.4 km) N. Retrieved 2019/06/17 18:42 UTC (3 hours ago):

TAF KRIC 171741Z 1718/1818 18009KT P6SM SCT035 BKN090 FM172200 22007KT P6SM VCSH BKN040 FM180100 20005KT P6SM BKN250 FM181400 23007KT P6SM SCT100